createdAt,value
2022-12-20T00:00:14.879Z,-0.2
2022-12-20T00:01:23.009Z,-0.2
2022-12-20T00:02:35.334Z,-0.2
2022-12-20T00:03:42.392Z,-0.2
2022-12-20T00:04:50.469Z,-0.2
2022-12-20T00:05:57.854Z,-0.1
2022-12-20T00:07:05.275Z,-0.1
2022-12-20T00:08:12.414Z,0
2022-12-20T00:09:20.391Z,0
2022-12-20T00:10:27.518Z,0
2022-12-20T00:11:34.943Z,-0.1
2022-12-20T00:12:41.934Z,-0.1
2022-12-20T00:13:48.946Z,0
2022-12-20T00:14:56.029Z,0
2022-12-20T00:16:03.941Z,-0.1
2022-12-20T00:17:13.867Z,0
2022-12-20T00:18:20.948Z,-0.1
2022-12-20T00:19:28.932Z,-0.1
2022-12-20T00:20:37.127Z,-0.1
2022-12-20T00:21:44.396Z,0
2022-12-20T00:22:51.404Z,0
2022-12-20T00:23:58.548Z,0
2022-12-20T00:25:06.591Z,-0.1
2022-12-20T00:26:13.848Z,-0.1
2022-12-20T00:27:21.170Z,0
2022-12-20T00:28:28.168Z,0
2022-12-20T00:29:35.736Z,0
2022-12-20T00:30:42.922Z,0
2022-12-20T00:31:50.934Z,0
2022-12-20T00:32:59.017Z,0.1
2022-12-20T00:34:06.388Z,0
2022-12-20T00:35:13.504Z,0
2022-12-20T00:36:21.405Z,0
2022-12-20T00:37:28.735Z,0
2022-12-20T00:38:35.968Z,0
2022-12-20T00:39:43.112Z,0
2022-12-20T00:40:51.832Z,0
2022-12-20T00:42:07.255Z,0
2022-12-20T00:43:14.809Z,0
2022-12-20T00:44:22.168Z,-0.1
2022-12-20T00:45:29.130Z,0
2022-12-20T00:46:36.312Z,-0.1
2022-12-20T00:47:43.625Z,0
2022-12-20T00:48:51.811Z,-0.1
2022-12-20T00:49:59.392Z,0
2022-12-20T00:51:07.050Z,-0.1
2022-12-20T00:52:17.875Z,-0.1
2022-12-20T00:53:26.589Z,-0.1
2022-12-20T00:54:33.193Z,-0.1
2022-12-20T00:55:40.360Z,0
2022-12-20T00:56:48.250Z,0
2022-12-20T00:57:55.519Z,0.1
2022-12-20T00:59:02.862Z,0
2022-12-20T01:00:11.104Z,0
2022-12-20T01:01:18.638Z,0.1
2022-12-20T01:02:28.925Z,0.1
2022-12-20T01:03:36.952Z,0.1
2022-12-20T01:04:44.368Z,0
2022-12-20T01:05:52.667Z,0
2022-12-20T01:06:59.724Z,0
2022-12-20T01:08:07.229Z,-0.1
2022-12-20T01:09:15.863Z,-0.1
2022-12-20T01:10:23.399Z,0
2022-12-20T01:11:31.663Z,0
2022-12-20T01:12:38.882Z,0
2022-12-20T01:13:46.802Z,0
2022-12-20T01:14:54.066Z,0.1
2022-12-20T01:16:02.190Z,0.1
2022-12-20T01:17:12.446Z,0.2
2022-12-20T01:18:20.463Z,0.1
2022-12-20T01:19:27.631Z,0.1
2022-12-20T01:20:34.906Z,0
2022-12-20T01:21:43.231Z,0
2022-12-20T01:22:50.536Z,0
2022-12-20T01:23:58.649Z,0
2022-12-20T01:25:06.018Z,0.1
2022-12-20T01:26:13.641Z,0
2022-12-20T01:27:20.631Z,-0.1
2022-12-20T01:28:27.735Z,-0.1
2022-12-20T01:29:35.707Z,0
2022-12-20T01:30:45.602Z,0
2022-12-20T01:31:52.648Z,-0.1
2022-12-20T01:32:59.700Z,-0.1
2022-12-20T01:34:06.776Z,0
2022-12-20T01:35:14.009Z,0.1
2022-12-20T01:36:21.159Z,-0.1
2022-12-20T01:37:31.496Z,-0.1
2022-12-20T01:38:39.764Z,-0.1
2022-12-20T01:39:47.118Z,0
2022-12-20T01:40:54.505Z,0.1
2022-12-20T01:42:01.722Z,0
2022-12-20T01:43:08.842Z,0
2022-12-20T01:44:16.003Z,0
2022-12-20T01:45:23.111Z,0
2022-12-20T01:46:30.617Z,0.1
2022-12-20T01:47:37.888Z,0
2022-12-20T01:48:44.853Z,0.1
2022-12-20T01:49:58.690Z,0
2022-12-20T01:51:05.760Z,0
2022-12-20T01:52:14.645Z,-0.1
2022-12-20T01:53:22.073Z,0
2022-12-20T01:54:29.146Z,0
2022-12-20T01:55:36.274Z,0
2022-12-20T01:56:44.259Z,0
2022-12-20T01:57:51.519Z,0
2022-12-20T01:59:04.886Z,0
2022-12-20T02:00:12.640Z,0
2022-12-20T02:01:20.156Z,0
2022-12-20T02:02:29.365Z,0
2022-12-20T02:03:36.539Z,-0.1
2022-12-20T02:04:43.890Z,-0.1
2022-12-20T02:05:50.987Z,0
2022-12-20T02:06:58.240Z,0
2022-12-20T02:08:05.239Z,0
2022-12-20T02:09:12.349Z,0
2022-12-20T02:10:20.178Z,0
2022-12-20T02:11:27.007Z,0
2022-12-20T02:12:44.540Z,0
2022-12-20T02:13:52.040Z,0
2022-12-20T02:15:00.179Z,0.1
2022-12-20T02:16:12.555Z,0.1
2022-12-20T02:17:20.425Z,0.2
2022-12-20T02:18:38.193Z,0.2
2022-12-20T02:19:45.158Z,0.2
2022-12-20T02:21:00.213Z,0.1
2022-12-20T02:22:10.584Z,0.1
2022-12-20T02:23:27.950Z,0.1
2022-12-20T02:24:41.667Z,0.1
2022-12-20T02:25:59.091Z,0.1
2022-12-20T02:27:14.994Z,0.1
2022-12-20T02:28:27.631Z,0.1
2022-12-20T02:29:34.543Z,0.2
2022-12-20T02:30:41.942Z,0.1
2022-12-20T02:31:49.275Z,0.1
2022-12-20T02:32:57.299Z,0
2022-12-20T02:34:06.524Z,0.1
2022-12-20T02:35:13.770Z,0
2022-12-20T02:36:24.762Z,0
2022-12-20T02:37:32.021Z,0.1
2022-12-20T02:38:39.288Z,0.1
2022-12-20T02:39:47.119Z,0
2022-12-20T02:40:54.370Z,0
2022-12-20T02:42:01.618Z,0
2022-12-20T02:43:11.173Z,0.1
2022-12-20T02:44:23.541Z,0
2022-12-20T02:45:35.837Z,0.1
2022-12-20T02:46:42.665Z,0
2022-12-20T02:47:49.834Z,0.1
2022-12-20T02:48:56.872Z,0
2022-12-20T02:50:04.086Z,0
2022-12-20T02:51:11.226Z,0
2022-12-20T02:52:18.865Z,0.1
2022-12-20T02:53:26.730Z,0.1
2022-12-20T02:54:33.549Z,0.1
2022-12-20T02:55:40.726Z,-0.1
2022-12-20T02:56:52.786Z,-0.1
2022-12-20T02:58:00.741Z,-0.1
2022-12-20T02:59:07.255Z,-0.2
2022-12-20T03:00:18.044Z,-0.1
2022-12-20T03:01:26.126Z,-0.2
2022-12-20T03:02:38.372Z,-0.2
2022-12-20T03:03:51.340Z,-0.2
2022-12-20T03:04:59.402Z,-0.2
2022-12-20T03:06:07.650Z,-0.2
2022-12-20T03:07:14.811Z,-0.2
2022-12-20T03:08:23.425Z,-0.1
2022-12-20T03:09:30.808Z,-0.1
2022-12-20T03:10:37.843Z,-0.2
2022-12-20T03:11:45.524Z,-0.1
2022-12-20T03:12:52.728Z,-0.1
2022-12-20T03:14:00.192Z,0
2022-12-20T03:15:07.988Z,0
2022-12-20T03:16:15.444Z,-0.2
2022-12-20T03:17:24.045Z,-0.2
2022-12-20T03:18:31.110Z,-0.1
2022-12-20T03:19:39.256Z,-0.1
2022-12-20T03:20:46.092Z,-0.1
2022-12-20T03:21:54.131Z,0
2022-12-20T03:23:01.590Z,0
2022-12-20T03:24:08.531Z,-0.1
2022-12-20T03:25:15.790Z,-0.1
2022-12-20T03:26:23.904Z,-0.1
2022-12-20T03:27:31.013Z,-0.1
2022-12-20T03:28:38.120Z,-0.1
2022-12-20T03:29:45.001Z,-0.2
2022-12-20T03:30:52.640Z,-0.1
2022-12-20T03:31:59.769Z,-0.1
2022-12-20T03:33:07.168Z,-0.1
2022-12-20T03:34:14.217Z,-0.1
2022-12-20T03:35:21.260Z,-0.2
2022-12-20T03:36:28.660Z,-0.1
2022-12-20T03:37:35.943Z,-0.2
2022-12-20T03:38:43.151Z,-0.1
2022-12-20T03:39:50.554Z,-0.2
2022-12-20T03:40:57.836Z,-0.3
2022-12-20T03:42:05.783Z,-0.3
2022-12-20T03:43:13.047Z,-0.2
2022-12-20T03:44:20.128Z,-0.3
2022-12-20T03:45:27.322Z,-0.3
2022-12-20T03:46:34.653Z,-0.2
2022-12-20T03:47:41.687Z,-0.2
2022-12-20T03:48:49.519Z,-0.2
2022-12-20T03:49:56.816Z,-0.2
2022-12-20T03:51:03.900Z,-0.2
2022-12-20T03:52:11.076Z,-0.3
2022-12-20T03:53:18.451Z,-0.3
2022-12-20T03:54:25.544Z,-0.3
2022-12-20T03:55:32.391Z,-0.3
2022-12-20T03:56:40.584Z,-0.3
2022-12-20T03:57:47.560Z,-0.3
2022-12-20T03:58:54.985Z,-0.2
2022-12-20T04:00:02.836Z,-0.2
2022-12-20T04:01:10.041Z,-0.3
2022-12-20T04:02:20.390Z,-0.3
2022-12-20T04:03:27.764Z,-0.2
2022-12-20T04:04:35.001Z,-0.1
2022-12-20T04:05:43.369Z,-0.1
2022-12-20T04:06:50.481Z,-0.2
2022-12-20T04:07:57.750Z,-0.1
2022-12-20T04:09:06.383Z,-0.2
2022-12-20T04:10:14.096Z,-0.1
2022-12-20T04:11:21.314Z,-0.1
2022-12-20T04:12:28.497Z,-0.1
2022-12-20T04:13:35.772Z,-0.1
2022-12-20T04:14:42.885Z,-0.1
2022-12-20T04:15:50.655Z,-0.1
2022-12-20T04:16:57.101Z,-0.1
2022-12-20T04:18:04.105Z,-0.1
2022-12-20T04:19:11.383Z,0
2022-12-20T04:20:19.107Z,0
2022-12-20T04:21:25.970Z,-0.1
2022-12-20T04:22:33.993Z,-0.1
2022-12-20T04:23:41.379Z,-0.1
2022-12-20T04:24:48.402Z,-0.1
2022-12-20T04:25:56.279Z,0
2022-12-20T04:27:03.909Z,0
2022-12-20T04:28:11.574Z,0
2022-12-20T04:29:18.870Z,0
2022-12-20T04:30:26.149Z,-0.1
2022-12-20T04:31:33.416Z,0
2022-12-20T04:32:40.486Z,0.1
2022-12-20T04:33:50.322Z,-0.1
2022-12-20T04:34:57.658Z,0
2022-12-20T04:36:04.617Z,-0.1
2022-12-20T04:37:11.755Z,0
2022-12-20T04:38:19.091Z,-0.1
2022-12-20T04:39:26.142Z,0.1
2022-12-20T04:40:34.454Z,0
2022-12-20T04:41:42.345Z,0
2022-12-20T04:42:50.406Z,0
2022-12-20T04:43:57.671Z,0
2022-12-20T04:45:05.025Z,0.1
2022-12-20T04:46:12.657Z,0.1
2022-12-20T04:47:20.181Z,0.1
2022-12-20T04:49:35.535Z,0
2022-12-20T04:50:42.790Z,0.1
2022-12-20T04:51:52.977Z,0.1
2022-12-20T04:53:00.137Z,0
2022-12-20T04:54:12.706Z,0
2022-12-20T04:55:20.367Z,0
2022-12-20T04:56:28.745Z,0.1
2022-12-20T04:57:36.231Z,0
2022-12-20T04:58:43.686Z,0
2022-12-20T04:59:50.993Z,0
2022-12-20T05:00:58.569Z,0
2022-12-20T05:02:07.056Z,0
2022-12-20T05:03:14.116Z,0
2022-12-20T05:04:24.147Z,0
2022-12-20T05:05:31.179Z,0
2022-12-20T05:06:38.466Z,0
2022-12-20T05:07:45.459Z,0
2022-12-20T05:08:53.590Z,0
2022-12-20T05:10:02.134Z,-0.1
2022-12-20T05:11:09.392Z,-0.1
2022-12-20T05:12:16.867Z,0
2022-12-20T05:13:24.102Z,0
2022-12-20T05:14:31.231Z,0
2022-12-20T05:15:39.514Z,-0.1
2022-12-20T05:16:46.494Z,-0.1
2022-12-20T05:17:53.639Z,-0.1
2022-12-20T05:19:03.823Z,-0.1
2022-12-20T05:20:10.846Z,-0.2
2022-12-20T05:21:17.992Z,-0.1
2022-12-20T05:22:30.317Z,0
2022-12-20T05:23:42.518Z,0
2022-12-20T05:24:56.913Z,0.1
2022-12-20T05:26:09.522Z,-0.1
2022-12-20T05:27:21.610Z,0
2022-12-20T05:28:28.835Z,-0.1
2022-12-20T05:29:35.975Z,-0.1
2022-12-20T05:30:43.167Z,-0.1
2022-12-20T05:31:51.019Z,0
2022-12-20T05:32:58.208Z,0
2022-12-20T05:34:06.540Z,0
2022-12-20T05:35:13.705Z,0
2022-12-20T05:36:20.646Z,0
2022-12-20T05:37:27.919Z,0
2022-12-20T05:38:35.995Z,0
2022-12-20T05:39:43.919Z,0
2022-12-20T05:40:51.125Z,0
2022-12-20T05:41:59.357Z,0
2022-12-20T05:43:07.750Z,-0.1
2022-12-20T05:44:15.044Z,-0.1
2022-12-20T05:45:22.223Z,-0.1
2022-12-20T05:46:30.366Z,-0.1
2022-12-20T05:47:37.491Z,-0.1
2022-12-20T05:48:44.596Z,-0.1
2022-12-20T05:49:51.618Z,-0.1
2022-12-20T05:50:59.149Z,-0.1
2022-12-20T05:52:06.426Z,-0.1
2022-12-20T05:53:14.602Z,-0.1
2022-12-20T05:54:21.915Z,-0.2
2022-12-20T05:55:28.950Z,-0.1
2022-12-20T05:56:36.901Z,-0.1
2022-12-20T05:57:44.022Z,0
2022-12-20T05:58:51.335Z,-0.1
2022-12-20T05:59:58.810Z,0
2022-12-20T06:01:05.862Z,-0.1
2022-12-20T06:02:13.450Z,-0.1
2022-12-20T06:03:20.348Z,-0.1
2022-12-20T06:04:27.302Z,-0.1
2022-12-20T06:05:36.077Z,-0.1
2022-12-20T06:06:43.194Z,-0.2
2022-12-20T06:07:50.091Z,-0.2
2022-12-20T06:08:57.680Z,-0.1
2022-12-20T06:10:05.155Z,0
2022-12-20T06:11:12.644Z,0
2022-12-20T06:12:19.686Z,0
2022-12-20T06:13:26.782Z,-0.1
2022-12-20T06:14:34.394Z,-0.1
2022-12-20T06:15:41.837Z,-0.1
2022-12-20T06:16:49.291Z,-0.1
2022-12-20T06:17:56.754Z,-0.1
2022-12-20T06:19:04.982Z,-0.2
2022-12-20T06:20:12.283Z,-0.1
2022-12-20T06:21:19.587Z,0
2022-12-20T06:22:26.839Z,-0.1
2022-12-20T06:23:34.018Z,-0.2
2022-12-20T06:24:46.123Z,-0.1
2022-12-20T06:25:49.435Z,-0.2
2022-12-20T06:26:57.398Z,-0.2
2022-12-20T06:28:04.711Z,-0.2
2022-12-20T06:29:11.971Z,-0.2
2022-12-20T06:30:20.393Z,-0.3
2022-12-20T06:31:28.755Z,-0.2
2022-12-20T06:32:35.816Z,-0.2
2022-12-20T06:33:43.610Z,-0.3
2022-12-20T06:34:50.880Z,-0.2
2022-12-20T06:35:57.828Z,-0.2
2022-12-20T06:37:05.175Z,-0.2
2022-12-20T06:38:12.308Z,-0.2
2022-12-20T06:39:19.223Z,-0.2
2022-12-20T06:40:26.359Z,-0.2
2022-12-20T06:41:34.532Z,-0.2
2022-12-20T06:42:41.804Z,-0.2
2022-12-20T06:43:49.722Z,-0.1
2022-12-20T06:44:56.858Z,-0.1
2022-12-20T06:46:04.127Z,-0.2
2022-12-20T06:47:11.057Z,-0.2
2022-12-20T06:48:19.042Z,-0.2
2022-12-20T06:49:27.157Z,-0.1
2022-12-20T06:50:34.456Z,-0.1
2022-12-20T06:51:41.624Z,-0.1
2022-12-20T06:52:48.661Z,-0.1
2022-12-20T06:53:55.801Z,-0.1
2022-12-20T06:55:03.697Z,-0.2
2022-12-20T06:56:11.189Z,-0.1
2022-12-20T06:57:18.432Z,-0.1
2022-12-20T06:58:26.509Z,-0.1
2022-12-20T06:59:33.794Z,-0.1
2022-12-20T07:00:41.103Z,0
2022-12-20T07:01:48.845Z,-0.1
2022-12-20T07:02:56.027Z,0
2022-12-20T07:04:02.933Z,0
2022-12-20T07:05:10.063Z,0
2022-12-20T07:06:17.173Z,0
2022-12-20T07:07:24.295Z,0
2022-12-20T07:08:31.367Z,0.1
2022-12-20T07:09:38.810Z,0.2
2022-12-20T07:10:46.114Z,0.1
2022-12-20T07:11:53.232Z,0
2022-12-20T07:13:00.548Z,0
2022-12-20T07:14:09.328Z,0.2
2022-12-20T07:15:16.816Z,0.2
2022-12-20T07:16:23.820Z,0.1
2022-12-20T07:17:31.079Z,0.1
2022-12-20T07:18:38.157Z,0.2
2022-12-20T07:19:50.446Z,0.2
2022-12-20T07:20:52.205Z,0.2
2022-12-20T07:21:59.398Z,0.3
2022-12-20T07:23:07.582Z,0.3
2022-12-20T07:24:14.651Z,0.3
2022-12-20T07:25:22.646Z,0.3
2022-12-20T07:26:31.066Z,0.4
2022-12-20T07:27:39.219Z,0.3
2022-12-20T07:28:46.701Z,0.3
2022-12-20T07:29:55.286Z,0.2
2022-12-20T07:31:02.455Z,0.3
2022-12-20T07:32:10.449Z,0.4
2022-12-20T07:33:18.770Z,0.4
2022-12-20T07:34:25.941Z,0.5
2022-12-20T07:35:32.929Z,0.5
2022-12-20T07:36:41.019Z,0.5
2022-12-20T07:37:48.160Z,0.4
2022-12-20T07:38:55.286Z,0.5
2022-12-20T07:40:02.814Z,0.5
2022-12-20T07:41:10.049Z,0.5
2022-12-20T07:42:17.398Z,0.5
2022-12-20T07:43:24.325Z,0.6
2022-12-20T07:44:32.587Z,0.6
2022-12-20T07:45:39.800Z,0.5
2022-12-20T07:46:46.758Z,0.5
2022-12-20T07:47:54.986Z,0.5
2022-12-20T07:49:02.252Z,0.5
2022-12-20T07:50:09.258Z,0.4
2022-12-20T07:51:16.441Z,0.5
2022-12-20T07:52:29.236Z,0.5
2022-12-20T07:53:36.920Z,0.6
2022-12-20T07:54:44.371Z,0.6
2022-12-20T07:55:54.938Z,0.5
2022-12-20T07:57:02.983Z,0.4
2022-12-20T07:58:10.321Z,0.4
2022-12-20T07:59:17.492Z,0.6
2022-12-20T08:00:24.445Z,0.5
2022-12-20T08:01:31.944Z,0.6
2022-12-20T08:02:39.822Z,0.6
2022-12-20T08:03:58.133Z,0.5
2022-12-20T08:05:09.161Z,0.5
2022-12-20T08:06:16.734Z,0.5
2022-12-20T08:07:25.083Z,0.5
2022-12-20T08:08:32.997Z,0.6
2022-12-20T08:09:40.294Z,0.5
2022-12-20T08:10:48.482Z,0.6
2022-12-20T08:11:55.693Z,0.5
2022-12-20T08:13:02.807Z,0.5
2022-12-20T08:14:09.927Z,0.6
2022-12-20T08:15:17.186Z,0.5
2022-12-20T08:16:24.829Z,0.6
2022-12-20T08:17:32.498Z,0.6
2022-12-20T08:18:39.366Z,0.6
2022-12-20T08:19:46.407Z,0.6
2022-12-20T08:20:53.703Z,0.6
2022-12-20T08:22:01.621Z,0.6
2022-12-20T08:23:09.859Z,0.6
2022-12-20T08:24:18.594Z,0.6
2022-12-20T08:25:35.948Z,0.6
2022-12-20T08:26:38.906Z,0.7
2022-12-20T08:27:45.972Z,0.7
2022-12-20T08:28:54.314Z,0.7
2022-12-20T08:30:02.395Z,0.8
2022-12-20T08:31:10.469Z,0.9
2022-12-20T08:32:17.586Z,0.9
2022-12-20T08:33:24.781Z,0.8
2022-12-20T08:34:33.466Z,1
2022-12-20T08:35:41.397Z,0.9
2022-12-20T08:36:48.713Z,0.9
2022-12-20T08:37:55.827Z,1
2022-12-20T08:39:02.958Z,1
2022-12-20T08:40:10.031Z,0.9
2022-12-20T08:41:17.333Z,0.9
2022-12-20T08:42:25.192Z,0.9
2022-12-20T08:43:32.931Z,1
2022-12-20T08:44:40.326Z,1
2022-12-20T08:45:48.960Z,1.1
2022-12-20T08:46:56.964Z,1
2022-12-20T08:48:04.134Z,1
2022-12-20T08:49:11.510Z,0.9
2022-12-20T08:50:19.691Z,0.9
2022-12-20T08:51:27.296Z,0.9
2022-12-20T08:52:34.464Z,1
2022-12-20T08:53:41.844Z,1
2022-12-20T08:54:48.825Z,1
2022-12-20T08:55:56.457Z,1.1
2022-12-20T08:57:14.665Z,1
2022-12-20T08:58:22.245Z,0.9
2022-12-20T08:59:30.605Z,1
2022-12-20T09:00:38.045Z,1.1
2022-12-20T09:01:46.447Z,1.1
2022-12-20T09:02:54.779Z,1.1
2022-12-20T09:04:01.860Z,1
2022-12-20T09:05:10.533Z,1.1
2022-12-20T09:06:18.149Z,1.1
2022-12-20T09:07:26.517Z,1
2022-12-20T09:08:34.769Z,1.1
2022-12-20T09:09:41.835Z,1
2022-12-20T09:10:49.705Z,1.1
2022-12-20T09:11:59.241Z,1.2
2022-12-20T09:13:07.714Z,1.2
2022-12-20T09:14:14.974Z,1.1
2022-12-20T09:15:22.915Z,1.1
2022-12-20T09:16:30.107Z,1.1
2022-12-20T09:17:38.244Z,1.1
2022-12-20T09:18:45.888Z,1.1
2022-12-20T09:19:53.535Z,1.1
2022-12-20T09:21:00.938Z,1.2
2022-12-20T09:22:08.657Z,1.2
2022-12-20T09:23:16.253Z,1.4
2022-12-20T09:24:23.924Z,1.3
2022-12-20T09:25:31.105Z,1.3
2022-12-20T09:26:38.435Z,1.2
2022-12-20T09:27:47.232Z,1.3
2022-12-20T09:28:57.177Z,1.2
2022-12-20T09:30:04.172Z,1.3
2022-12-20T09:31:12.947Z,1.4
2022-12-20T09:32:20.457Z,1.3
2022-12-20T09:33:28.554Z,1.2
2022-12-20T09:34:37.770Z,1.2
2022-12-20T09:35:45.362Z,1.2
2022-12-20T09:36:53.577Z,1.2
2022-12-20T09:38:01.257Z,1.2
2022-12-20T09:39:08.273Z,1.3
2022-12-20T09:40:16.472Z,1.2
2022-12-20T09:41:24.443Z,1.2
2022-12-20T09:42:34.288Z,1.2
2022-12-20T09:43:41.510Z,1.2
2022-12-20T09:44:48.625Z,1.2
2022-12-20T09:45:56.128Z,1.3
2022-12-20T09:47:08.380Z,1.2
2022-12-20T09:48:15.804Z,1.2
2022-12-20T09:49:23.118Z,1.2
2022-12-20T09:50:33.104Z,1.2
2022-12-20T09:51:46.323Z,1.1
2022-12-20T09:52:58.489Z,1.3
2022-12-20T09:54:11.377Z,1.2
2022-12-20T09:55:25.507Z,1.4
2022-12-20T09:56:37.133Z,1.4
2022-12-20T09:57:52.539Z,1.4
2022-12-20T09:59:10.185Z,1.3
2022-12-20T10:00:19.274Z,1.4
2022-12-20T10:01:31.300Z,1.3
2022-12-20T10:02:56.927Z,1.4
2022-12-20T10:03:44.325Z,1.6
2022-12-20T10:04:51.723Z,1.5
2022-12-20T10:05:58.843Z,1.7
2022-12-20T10:07:16.593Z,1.7
2022-12-20T10:08:29.860Z,1.7
2022-12-20T10:09:39.673Z,1.7
2022-12-20T10:10:54.907Z,1.5
2022-12-20T10:12:14.569Z,1.5
2022-12-20T10:13:33.511Z,1.5
2022-12-20T10:14:46.409Z,1.5
2022-12-20T10:16:03.655Z,1.6
2022-12-20T10:17:21.189Z,1.4
2022-12-20T10:18:38.778Z,1.4
2022-12-20T10:19:55.412Z,1.4
2022-12-20T10:21:07.932Z,1.5
2022-12-20T10:22:18.526Z,1.5
2022-12-20T10:23:32.922Z,1.4
2022-12-20T10:24:42.400Z,1.4
2022-12-20T10:25:49.401Z,1.5
2022-12-20T10:26:57.662Z,1.5
2022-12-20T10:28:17.882Z,1.4
2022-12-20T10:29:25.685Z,1.4
2022-12-20T10:30:33.939Z,1.5
2022-12-20T10:31:42.020Z,1.5
2022-12-20T10:32:49.064Z,1.5
2022-12-20T10:33:56.700Z,1.6
2022-12-20T10:35:04.126Z,1.6
2022-12-20T10:36:15.331Z,1.5
2022-12-20T10:37:22.865Z,1.5
2022-12-20T10:38:30.562Z,1.5
2022-12-20T10:39:39.233Z,1.5
2022-12-20T10:41:19.209Z,1.6
2022-12-20T10:42:04.692Z,1.5
2022-12-20T10:43:12.359Z,1.6
2022-12-20T10:44:22.187Z,1.5
2022-12-20T10:45:35.772Z,1.5
2022-12-20T10:46:40.067Z,1.5
2022-12-20T10:47:50.099Z,1.6
2022-12-20T10:48:57.423Z,1.6
2022-12-20T10:50:04.371Z,1.6
2022-12-20T10:51:16.056Z,1.8
2022-12-20T10:52:22.299Z,1.7
2022-12-20T10:53:29.292Z,1.7
2022-12-20T10:54:36.591Z,1.7
2022-12-20T10:55:43.571Z,1.6
2022-12-20T10:56:50.676Z,1.4
2022-12-20T10:58:01.045Z,1.5
2022-12-20T10:59:07.941Z,1.5
2022-12-20T11:00:21.201Z,1.6
2022-12-20T11:01:32.230Z,1.6
2022-12-20T11:02:41.815Z,1.7
2022-12-20T11:03:46.962Z,1.7
2022-12-20T11:05:01.626Z,1.8
2022-12-20T11:06:14.274Z,1.8
2022-12-20T11:07:21.369Z,1.9
2022-12-20T11:08:50.043Z,1.9
2022-12-20T11:09:36.935Z,1.9
2022-12-20T11:10:44.235Z,1.7
2022-12-20T11:11:52.700Z,1.8
2022-12-20T11:13:08.008Z,1.8
2022-12-20T11:14:23.295Z,1.9
2022-12-20T11:15:33.624Z,2.1
2022-12-20T11:16:38.395Z,2
2022-12-20T11:17:45.231Z,2
2022-12-20T11:18:52.558Z,2.1
2022-12-20T11:19:59.597Z,2.1
2022-12-20T11:21:17.772Z,2.2
2022-12-20T11:22:25.512Z,2.3
2022-12-20T11:23:35.667Z,2.3
2022-12-20T11:24:45.495Z,2.2
2022-12-20T11:26:00.626Z,2.2
2022-12-20T11:27:17.837Z,2.1
2022-12-20T11:28:28.124Z,2
2022-12-20T11:29:44.292Z,2
2022-12-20T11:30:56.583Z,1.9
2022-12-20T11:32:03.668Z,1.8
2022-12-20T11:33:18.439Z,1.7
2022-12-20T11:34:33.450Z,1.7
2022-12-20T11:35:45.536Z,1.7
2022-12-20T11:37:02.681Z,1.7
2022-12-20T11:38:13.183Z,1.7
2022-12-20T11:39:31.759Z,1.8
2022-12-20T11:40:46.973Z,1.8
2022-12-20T11:42:01.187Z,1.9
2022-12-20T11:43:15.261Z,2
2022-12-20T11:44:32.791Z,2.1
2022-12-20T11:45:47.961Z,2.1
2022-12-20T11:47:05.448Z,2.1
2022-12-20T11:48:12.975Z,2.1
2022-12-20T11:49:26.492Z,2
2022-12-20T11:50:44.016Z,2.1
2022-12-20T11:52:01.303Z,2
2022-12-20T11:53:08.545Z,2.1
2022-12-20T11:54:21.928Z,2.1
2022-12-20T11:55:36.645Z,2.1
2022-12-20T11:56:45.229Z,2
2022-12-20T11:58:17.293Z,2
2022-12-20T11:59:05.005Z,2.1
2022-12-20T12:00:22.860Z,2.1
2022-12-20T12:01:30.781Z,1.9
2022-12-20T12:02:46.658Z,1.9
2022-12-20T12:04:00.295Z,2
2022-12-20T12:05:11.520Z,2
2022-12-20T12:06:18.343Z,2
2022-12-20T12:07:25.422Z,2
2022-12-20T12:08:32.768Z,2.1
2022-12-20T12:09:44.972Z,2.1
2022-12-20T12:10:57.875Z,2.1
2022-12-20T12:12:07.633Z,2.2
2022-12-20T12:13:12.302Z,2.3
2022-12-20T12:14:23.115Z,2.4
2022-12-20T12:15:38.220Z,2.5
2022-12-20T12:16:56.406Z,2.3
2022-12-20T12:18:03.685Z,2.3
2022-12-20T12:19:10.703Z,2.3
2022-12-20T12:20:18.758Z,2.3
2022-12-20T12:21:27.148Z,2.3
2022-12-20T12:22:36.724Z,2.3
2022-12-20T12:23:43.875Z,2.2
2022-12-20T12:24:56.167Z,2.4
2022-12-20T12:26:03.400Z,2.3
2022-12-20T12:27:15.839Z,2.4
2022-12-20T12:28:26.013Z,2.4
2022-12-20T12:29:33.190Z,2.5
2022-12-20T12:30:41.175Z,2.5
2022-12-20T12:31:48.741Z,2.5
2022-12-20T12:33:01.268Z,2.4
2022-12-20T12:34:08.774Z,2.4
2022-12-20T12:35:20.996Z,2.3
2022-12-20T12:36:38.476Z,2.2
2022-12-20T12:37:53.594Z,2.2
2022-12-20T12:39:10.790Z,2.2
2022-12-20T12:40:28.889Z,2.2
2022-12-20T12:41:46.560Z,2.2
2022-12-20T12:42:58.715Z,2.2
2022-12-20T12:44:10.988Z,2.2
2022-12-20T12:45:24.467Z,2.1
2022-12-20T12:46:37.207Z,2.2
2022-12-20T12:47:45.222Z,2.1
2022-12-20T12:48:57.786Z,2.1
2022-12-20T12:50:08.405Z,2
2022-12-20T12:51:16.207Z,1.9
2022-12-20T12:52:32.289Z,1.9
2022-12-20T12:53:41.700Z,1.9
2022-12-20T12:54:54.448Z,1.8
2022-12-20T12:56:19.559Z,1.8
2022-12-20T12:57:20.067Z,1.9
2022-12-20T12:58:27.324Z,1.9
2022-12-20T12:59:34.524Z,1.9
2022-12-20T13:00:41.449Z,1.9
2022-12-20T13:01:54.728Z,1.8
2022-12-20T13:03:07.742Z,1.8
2022-12-20T13:04:17.903Z,1.8
2022-12-20T13:05:30.578Z,1.8
2022-12-20T13:06:39.076Z,1.7
2022-12-20T13:07:46.175Z,1.8
2022-12-20T13:08:53.363Z,1.7
2022-12-20T13:10:01.251Z,1.7
2022-12-20T13:11:13.639Z,1.8
2022-12-20T13:12:20.883Z,1.8
2022-12-20T13:13:38.007Z,1.7
2022-12-20T13:14:45.554Z,1.7
2022-12-20T13:15:52.918Z,1.7
2022-12-20T13:17:11.897Z,1.7
2022-12-20T13:18:07.598Z,1.7
2022-12-20T13:19:14.883Z,1.7
2022-12-20T13:20:31.746Z,1.7
2022-12-20T13:21:39.243Z,1.7
2022-12-20T13:22:50.261Z,1.7
2022-12-20T13:24:07.730Z,1.5
2022-12-20T13:25:28.161Z,1.6
2022-12-20T13:26:34.292Z,1.7
2022-12-20T13:27:46.835Z,1.5
2022-12-20T13:28:56.675Z,1.6
2022-12-20T13:30:03.598Z,1.7
2022-12-20T13:31:11.048Z,1.5
2022-12-20T13:32:19.627Z,1.5
2022-12-20T13:33:37.677Z,1.5
2022-12-20T13:34:48.233Z,1.4
2022-12-20T13:35:58.732Z,1.4
2022-12-20T13:37:07.748Z,1.6
2022-12-20T13:38:25.326Z,1.5
2022-12-20T13:39:42.912Z,1.6
2022-12-20T13:40:50.006Z,1.5
2022-12-20T13:42:01.719Z,1.6
2022-12-20T13:43:17.135Z,1.6
2022-12-20T13:44:25.368Z,1.5
2022-12-20T13:45:37.055Z,1.5
2022-12-20T13:46:44.009Z,1.6
2022-12-20T13:48:01.273Z,1.6
2022-12-20T13:49:07.355Z,1.5
2022-12-20T13:50:15.532Z,1.6
2022-12-20T13:51:33.621Z,1.6
2022-12-20T13:52:45.150Z,1.5
2022-12-20T13:53:52.930Z,1.4
2022-12-20T13:55:00.427Z,1.4
2022-12-20T13:56:07.376Z,1.5
2022-12-20T13:57:25.942Z,1.3
2022-12-20T13:58:34.910Z,1.4
2022-12-20T13:59:43.194Z,1.3
2022-12-20T14:00:53.291Z,1.4
2022-12-20T14:02:08.738Z,1.3
2022-12-20T14:03:22.919Z,1.4
2022-12-20T14:04:31.173Z,1.5
2022-12-20T14:05:44.567Z,1.5
2022-12-20T14:06:51.820Z,1.4
2022-12-20T14:08:02.676Z,1.4
2022-12-20T14:09:19.573Z,1.4
2022-12-20T14:10:35.720Z,1.5
2022-12-20T14:11:45.208Z,1.4
2022-12-20T14:12:52.450Z,1.5
2022-12-20T14:13:59.679Z,1.5
2022-12-20T14:15:07.215Z,1.4
2022-12-20T14:16:24.566Z,1.4
2022-12-20T14:17:32.549Z,1.4
2022-12-20T14:18:39.718Z,1.4
2022-12-20T14:19:46.865Z,1.4
2022-12-20T14:21:02.116Z,1.3
2022-12-20T14:22:09.264Z,1.3
2022-12-20T14:23:16.325Z,1.3
2022-12-20T14:24:23.497Z,1.2
2022-12-20T14:25:30.560Z,1.3
2022-12-20T14:26:46.210Z,1.4
2022-12-20T14:27:53.765Z,1.3
2022-12-20T14:29:01.176Z,1.3
2022-12-20T14:30:08.293Z,1.3
2022-12-20T14:31:25.742Z,1.3
2022-12-20T14:32:35.297Z,1.3
2022-12-20T14:33:42.552Z,1.2
2022-12-20T14:34:49.689Z,1.2
2022-12-20T14:35:56.770Z,1.3
2022-12-20T14:37:22.297Z,1.3
2022-12-20T14:38:37.384Z,1.3
2022-12-20T14:39:45.557Z,1.2
2022-12-20T14:40:57.941Z,1.2
2022-12-20T14:42:04.986Z,1.2
2022-12-20T14:43:12.021Z,1.2
2022-12-20T14:44:19.128Z,1.1
2022-12-20T14:45:27.134Z,1.2
2022-12-20T14:46:34.890Z,1.2
2022-12-20T14:47:43.048Z,1.1
2022-12-20T14:48:58.652Z,1
2022-12-20T14:50:16.193Z,1.1
2022-12-20T14:51:23.340Z,1
2022-12-20T14:52:30.435Z,1
2022-12-20T14:53:39.146Z,1
2022-12-20T14:55:59.039Z,1
2022-12-20T14:57:08.977Z,0.9
2022-12-20T14:58:26.772Z,1
2022-12-20T14:59:34.265Z,1
2022-12-20T15:00:41.281Z,1
2022-12-20T15:01:49.412Z,0.9
2022-12-20T15:02:57.205Z,0.8
2022-12-20T15:04:05.406Z,0.8
2022-12-20T15:05:22.878Z,0.7
2022-12-20T15:06:35.120Z,0.7
2022-12-20T15:07:45.976Z,0.7
2022-12-20T15:08:53.351Z,0.8
2022-12-20T15:10:01.712Z,0.8
2022-12-20T15:11:09.288Z,0.7
2022-12-20T15:12:16.604Z,0.7
2022-12-20T15:13:24.294Z,0.6
2022-12-20T15:14:34.179Z,0.7
2022-12-20T15:15:41.407Z,0.8
2022-12-20T15:16:48.488Z,0.8
2022-12-20T15:17:56.843Z,0.9
2022-12-20T15:19:05.195Z,0.8
2022-12-20T15:20:12.374Z,0.8
2022-12-20T15:21:20.356Z,0.8
2022-12-20T15:22:35.538Z,0.7
2022-12-20T15:23:43.131Z,0.7
2022-12-20T15:24:50.220Z,0.7
2022-12-20T15:25:57.258Z,0.7
2022-12-20T15:27:04.473Z,0.7
2022-12-20T15:28:12.295Z,0.7
2022-12-20T15:29:22.187Z,0.6
2022-12-20T15:30:29.332Z,0.7
2022-12-20T15:31:36.569Z,0.8
2022-12-20T15:32:54.412Z,0.6
2022-12-20T15:33:51.625Z,0.7
2022-12-20T15:34:58.904Z,0.8
2022-12-20T15:36:06.373Z,0.6
2022-12-20T15:37:19.346Z,0.6
2022-12-20T15:38:41.223Z,0.6
2022-12-20T15:39:35.000Z,0.7
2022-12-20T15:40:42.166Z,0.7
2022-12-20T15:41:49.526Z,0.5
2022-12-20T15:42:56.521Z,0.6
2022-12-20T15:44:04.469Z,0.7
2022-12-20T15:45:11.724Z,0.6
2022-12-20T15:46:18.913Z,0.6
2022-12-20T15:47:25.971Z,0.6
2022-12-20T15:48:33.251Z,0.7
2022-12-20T15:49:44.704Z,0.6
2022-12-20T15:50:47.524Z,0.6
2022-12-20T15:51:57.697Z,0.6
2022-12-20T15:53:04.734Z,0.6
2022-12-20T15:54:11.848Z,0.6
2022-12-20T15:55:24.427Z,0.5
2022-12-20T15:56:31.920Z,0.5
2022-12-20T15:57:38.867Z,0.5